Time;durP1;ratioP1;P1;durP2;ratioP2;P2;SDS_P1;SDS_P2;PMS_P1;PMS_P2;Temp;Humidity;BMP_temperature;BMP_pressure;BME280_temperature;BME280_humidity;BME280_pressure;Samples;Min_cycle;Max_cycle;Signal;HPM_P1;HPM_P2
2022/05/14 00:00:17;;;;;;;5.28;3.85;;;;;;;16.98;64.10;100757.50;4993897;28;102548;-82
2022/05/14 00:02:44;;;;;;;4.30;3.13;;;;;;;16.98;64.01;100746.50;5007356;28;102420;-82
2022/05/14 00:05:11;;;;;;;4.35;3.42;;;;;;;16.98;63.90;100744.56;4993875;28;103944;-82
2022/05/14 00:07:38;;;;;;;7.28;3.70;;;;;;;16.99;64.12;100759.97;5006041;28;102029;-82
2022/05/14 00:10:11;;;;;;;5.40;3.80;;;;;;;16.99;63.76;100762.72;5011843;28;102222;-82
2022/05/14 00:15:26;;;;;;;5.75;3.47;;;;;;;16.98;64.27;100747.31;5013716;28;103895;-82
2022/05/14 00:17:54;;;;;;;5.10;3.55;;;;;;;16.98;63.83;100747.31;5013493;28;102380;-82
2022/05/14 00:20:23;;;;;;;5.18;3.60;;;;;;;16.98;63.89;100752.81;5013513;28;102541;-82
2022/05/14 00:22:52;;;;;;;9.77;4.15;;;;;;;16.98;64.48;100747.31;5019209;28;102315;-82
2022/05/14 00:25:20;;;;;;;8.30;4.03;;;;;;;16.98;64.27;100741.81;5017405;28;103933;-82
2022/05/14 00:27:47;;;;;;;4.63;3.70;;;;;;;16.98;64.24;100744.56;5012421;28;101774;-83
2022/05/14 00:30:15;;;;;;;6.75;3.47;;;;;;;16.97;64.20;100753.94;5007299;28;101972;-83
2022/05/14 00:32:42;;;;;;;6.85;4.03;;;;;;;16.98;64.21;100747.31;5018514;28;102537;-83
2022/05/14 00:35:10;;;;;;;5.00;3.35;;;;;;;16.98;64.48;100746.50;5014224;28;103892;-83
2022/05/14 00:37:37;;;;;;;5.03;3.30;;;;;;;16.98;64.54;100758.31;4996928;28;102001;-83
2022/05/14 00:40:10;;;;;;;4.72;3.35;;;;;;;16.97;64.25;100764.94;4995708;28;102049;-83
2022/05/14 00:42:37;;;;;;;4.78;3.40;;;;;;;16.97;64.47;100769.66;4996521;28;102134;-83
2022/05/14 00:45:06;;;;;;;4.80;3.75;;;;;;;16.96;64.31;100771.59;5003906;28;103531;-82
2022/05/14 00:47:35;;;;;;;4.37;3.73;;;;;;;16.96;64.18;100771.59;5015421;28;102075;-83
2022/05/14 00:50:04;;;;;;;6.32;3.17;;;;;;;16.96;64.42;100779.84;5014510;28;102052;-82
2022/05/14 00:52:31;;;;;;;5.83;3.70;;;;;;;16.96;64.13;100782.59;5005709;28;102083;-82
2022/05/14 00:55:01;;;;;;;4.40;3.90;;;;;;;16.97;64.37;100777.88;5008307;28;104010;-82
2022/05/14 00:57:33;;;;;;;5.03;3.85;;;;;;;16.95;64.23;100778.22;5009041;28;102343;-82
2022/05/14 01:00:05;;;;;;;4.10;3.53;;;;;;;16.96;64.18;100784.53;5000635;28;102716;-82
2022/05/14 01:02:32;;;;;;;4.72;3.50;;;;;;;16.95;64.44;100788.38;5009700;28;102451;-82
2022/05/14 01:05:02;;;;;;;6.00;3.90;;;;;;;16.95;64.62;100785.63;5013278;28;103506;-82
2022/05/14 01:07:30;;;;;;;5.22;3.58;;;;;;;16.96;64.56;100792.78;5012540;28;102631;-82
2022/05/14 01:10:00;;;;;;;5.32;4.20;;;;;;;16.95;64.08;100786.47;5010832;28;101914;-84
2022/05/14 01:12:30;;;;;;;4.97;3.60;;;;;;;16.95;64.61;100794.72;4996070;28;102354;-83
2022/05/14 01:15:07;;;;;;;5.60;3.53;;;;;;;16.94;64.02;100801.31;5014170;28;103813;-82
2022/05/14 01:17:33;;;;;;;5.35;3.17;;;;;;;16.95;64.65;100813.97;5004323;28;102020;-82
2022/05/14 01:20:00;;;;;;;4.28;3.30;;;;;;;16.94;64.12;100817.81;5014264;28;102020;-83
2022/05/14 01:22:36;;;;;;;4.63;3.45;;;;;;;16.94;64.57;100817.81;5001453;28;103711;-82
2022/05/14 01:27:59;;;;;;;5.18;3.75;;;;;;;16.94;64.17;100819.75;5000942;28;102694;-82
2022/05/14 01:30:25;;;;;;;;;;;;;;;16.94;64.29;100823.31;5014735;28;102416;-81
2022/05/14 01:33:04;;;;;;;4.55;3.53;;;;;;;16.94;64.31;100823.31;5014987;28;102203;-81
2022/05/14 01:35:31;;;;;;;;;;;;;;;16.94;64.37;100828.81;5013677;28;104049;-82
2022/05/14 01:37:57;;;;;;;4.75;3.60;;;;;;;16.95;64.46;100832.34;5009591;28;102211;-82
2022/05/14 01:40:25;;;;;;;4.82;3.22;;;;;;;16.94;64.24;100828.81;5012713;28;102489;-82
2022/05/14 01:42:52;;;;;;;5.50;3.65;;;;;;;16.94;64.34;100834.28;5014734;28;102226;-82
2022/05/14 01:45:20;;;;;;;5.20;3.15;;;;;;;16.94;64.67;100823.31;5013396;28;103849;-82
2022/05/14 01:47:47;;;;;;;4.95;3.20;;;;;;;16.93;64.50;100832.69;5011937;28;102413;-82
2022/05/14 01:50:15;;;;;;;3.65;3.28;;;;;;;16.93;64.33;100818.94;4995383;28;102089;-82
2022/05/14 01:52:41;;;;;;;7.78;3.30;;;;;;;16.93;64.39;100816.19;4996045;28;102540;-82
2022/05/14 01:55:08;;;;;;;3.53;3.13;;;;;;;16.92;64.29;100820.06;5012747;28;103906;-83
2022/05/14 01:57:35;;;;;;;3.95;2.90;;;;;;;16.93;64.28;100818.13;4998037;28;102215;-83
2022/05/14 02:00:04;;;;;;;4.85;2.92;;;;;;;16.93;64.44;100820.88;4993141;28;102007;-82
2022/05/14 02:02:32;;;;;;;5.15;3.45;;;;;;;16.93;64.34;100815.38;5004140;28;102301;-82
2022/05/14 02:04:58;;;;;;;3.83;3.17;;;;;;;16.92;64.19;100822.81;5007717;28;103999;-82
2022/05/14 02:07:24;;;;;;;5.93;3.10;;;;;;;16.92;64.27;100814.56;5003849;28;102647;-82
2022/05/14 02:09:51;;;;;;;4.05;3.53;;;;;;;16.92;64.29;100814.56;5005041;28;102607;-82
2022/05/14 02:12:17;;;;;;;4.35;3.13;;;;;;;16.93;64.28;100821.69;5004696;28;102086;-82
2022/05/14 02:14:45;;;;;;;5.10;3.30;;;;;;;16.92;64.32;100814.56;5006510;28;104001;-82
2022/05/14 02:17:14;;;;;;;4.15;3.30;;;;;;;16.92;64.34;100827.50;4993252;28;102298;-82
2022/05/14 02:19:42;;;;;;;3.20;2.90;;;;;;;16.91;64.25;100812.94;4995387;28;102128;-82
2022/05/14 02:22:08;;;;;;;3.72;3.05;;;;;;;16.92;64.10;100816.50;5006409;28;102494;-82
2022/05/14 02:24:36;;;;;;;4.63;3.42;;;;;;;16.92;64.14;100809.06;4992511;28;104089;-82
2022/05/14 02:27:04;;;;;;;4.90;3.22;;;;;;;16.92;64.24;100798.06;4993005;28;102191;-83
2022/05/14 02:29:50;;;;;;;4.82;3.13;;;;;;;16.91;64.30;100790.94;4991964;28;102483;-83
2022/05/14 02:32:17;;;;;;;5.28;3.10;;;;;;;16.91;63.92;100795.63;4994462;28;102358;-82
2022/05/14 02:34:46;;;;;;;4.18;3.13;;;;;;;16.91;64.32;100790.94;4992751;28;103911;-83
2022/05/14 02:37:13;;;;;;;5.73;3.27;;;;;;;16.91;64.15;100784.63;4993075;28;102414;-83
2022/05/14 02:39:39;;;;;;;6.68;3.20;;;;;;;16.91;64.63;100790.94;4991371;28;102396;-82
2022/05/14 02:42:06;;;;;;;4.55;3.17;;;;;;;16.90;64.33;100789.31;4993361;28;102537;-82
2022/05/14 02:44:34;;;;;;;3.75;3.10;;;;;;;16.91;64.51;100806.63;4990961;28;103982;-82
2022/05/14 02:47:00;;;;;;;3.83;2.92;;;;;;;16.90;64.65;100808.56;4992380;28;102345;-82
2022/05/14 02:49:26;;;;;;;3.47;3.17;;;;;;;16.90;64.05;100800.31;4992602;28;101904;-81
2022/05/14 02:51:54;;;;;;;4.32;2.97;;;;;;;16.91;64.58;100798.38;4993637;28;102368;-82
2022/05/14 02:54:21;;;;;;;3.70;3.30;;;;;;;16.91;64.58;100790.94;4994366;28;104000;-82
2022/05/14 02:56:47;;;;;;;4.80;3.22;;;;;;;16.91;64.05;100793.69;5012711;28;101920;-82
2022/05/14 02:59:15;;;;;;;3.20;2.88;;;;;;;16.91;63.99;100773.63;5012398;28;101889;-82
2022/05/14 03:01:47;;;;;;;6.95;3.30;;;;;;;16.90;64.53;100764.56;5003591;28;102190;-82
2022/05/14 03:04:14;;;;;;;3.35;2.70;;;;;;;16.90;64.12;100761.84;5005366;28;103980;-82
2022/05/14 03:06:42;;;;;;;3.90;3.40;;;;;;;16.89;64.40;100765.72;5013253;28;102064;-82
2022/05/14 03:09:11;;;;;;;5.97;2.92;;;;;;;16.90;64.21;100756.34;5012068;28;102281;-83
2022/05/14 03:11:40;;;;;;;5.05;3.08;;;;;;;16.89;64.30;100760.22;5011259;28;102479;-82
2022/05/14 03:14:07;;;;;;;3.90;3.10;;;;;;;16.89;64.41;100760.22;4998613;28;104146;-82
2022/05/14 03:16:33;;;;;;;3.40;3.10;;;;;;;16.90;64.59;100755.53;4993668;28;101955;-83
2022/05/14 03:19:00;;;;;;;3.53;3.17;;;;;;;16.89;64.84;100732.72;5008588;28;102430;-82
2022/05/14 03:21:26;;;;;;;2.85;2.58;;;;;;;16.89;64.19;100735.47;5014224;28;102230;-82
2022/05/14 03:23:53;;;;;;;3.50;2.72;;;;;;;16.89;64.12;100751.97;5011459;28;103974;-82
2022/05/14 03:26:21;;;;;;;3.58;3.13;;;;;;;16.89;64.43;100743.72;5013033;28;102500;-82
2022/05/14 03:28:49;;;;;;;4.87;3.17;;;;;;;16.90;64.09;100744.53;5012650;28;102438;-82
2022/05/14 03:31:15;;;;;;;5.28;3.38;;;;;;;16.89;64.53;100745.66;5014411;28;102422;-82
2022/05/14 03:33:42;;;;;;;2.80;2.40;;;;;;;16.89;64.46;100748.41;4994158;28;104152;-82
2022/05/14 03:36:08;;;;;;;3.40;2.97;;;;;;;16.89;64.72;100749.22;4993446;28;102430;-82
2022/05/14 03:38:37;;;;;;;3.92;2.92;;;;;;;16.89;64.31;100754.72;4992375;28;102320;-82
2022/05/14 03:41:04;;;;;;;4.68;2.95;;;;;;;16.88;64.02;100753.09;4993760;28;102446;-83
2022/05/14 03:43:34;;;;;;;3.05;2.75;;;;;;;16.89;64.37;100742.91;4994679;28;103928;-83
2022/05/14 03:46:00;;;;;;;3.55;2.90;;;;;;;16.89;64.07;100737.41;4996500;28;102078;-83
2022/05/14 03:48:27;;;;;;;4.20;2.97;;;;;;;16.88;64.16;100739.34;4998404;28;102169;-83
2022/05/14 03:50:54;;;;;;;2.97;2.70;;;;;;;16.89;64.42;100737.41;5017516;28;102409;-83
2022/05/14 03:53:22;;;;;;;3.72;2.92;;;;;;;16.89;64.12;100729.16;5015660;28;103757;-83
2022/05/14 03:55:49;;;;;;;3.05;2.78;;;;;;;16.88;64.65;100731.13;5017348;28;101899;-83
2022/05/14 03:58:15;;;;;;;3.15;2.85;;;;;;;16.88;64.25;100736.59;4998186;28;102469;-83
2022/05/14 04:00:43;;;;;;;3.50;2.97;;;;;;;16.88;64.36;100742.09;4997823;28;102444;-83
2022/05/14 04:03:10;;;;;;;5.20;3.38;;;;;;;16.89;64.54;100742.91;5008360;28;104019;-83
2022/05/14 04:05:37;;;;;;;3.95;3.00;;;;;;;16.87;64.60;100745.97;5000945;28;102897;-82
2022/05/14 04:08:04;;;;;;;4.68;3.00;;;;;;;16.88;64.54;100747.59;5013791;28;102127;-82
2022/05/14 04:10:32;;;;;;;3.53;3.05;;;;;;;16.88;64.26;100744.00;5014173;28;102527;-82
2022/05/14 04:12:59;;;;;;;3.30;3.03;;;;;;;16.88;64.20;100747.59;5005111;28;103919;-82
2022/05/14 04:15:27;;;;;;;3.10;2.83;;;;;;;16.88;64.39;100747.59;4997815;28;102543;-83
2022/05/14 04:17:55;;;;;;;3.13;2.83;;;;;;;16.88;64.57;100736.59;5015282;28;102678;-83
2022/05/14 04:20:22;;;;;;;3.28;2.97;;;;;;;16.88;64.05;100742.09;5017605;28;102378;-82
2022/05/14 04:22:50;;;;;;;3.28;2.95;;;;;;;16.87;64.10;100736.91;5016510;28;103825;-83
2022/05/14 04:25:17;;;;;;;2.88;2.67;;;;;;;16.89;64.45;100740.16;5009511;28;101963;-83
2022/05/14 04:27:47;;;;;;;3.08;2.63;;;;;;;16.89;64.09;100743.72;4996098;28;102483;-83
2022/05/14 04:30:16;;;;;;;3.00;2.70;;;;;;;16.88;64.16;100753.09;4996742;28;102286;-82
2022/05/14 04:32:43;;;;;;;2.88;2.60;;;;;;;16.88;64.54;100742.09;4995869;28;104136;-84
2022/05/14 04:35:13;;;;;;;3.28;2.83;;;;;;;16.89;64.35;100745.66;4996568;28;102509;-83
2022/05/14 04:37:39;;;;;;;2.55;2.35;;;;;;;16.89;64.16;100748.41;5007670;28;102019;-83
2022/05/14 04:40:08;;;;;;;3.78;2.80;;;;;;;16.88;64.00;100764.09;5017271;28;102337;-82
2022/05/14 04:42:38;;;;;;;3.60;3.30;;;;;;;16.87;64.42;100756.94;5016209;28;103916;-82
2022/05/14 04:45:08;;;;;;;3.17;2.30;;;;;;;16.89;64.00;100756.66;5017541;28;101971;-83
2022/05/14 04:47:35;;;;;;;3.08;2.42;;;;;;;16.89;63.87;100748.41;5016404;28;101906;-82
2022/05/14 04:50:03;;;;;;;3.97;2.92;;;;;;;16.88;64.34;100749.50;5018200;28;102703;-83
2022/05/14 04:52:31;;;;;;;3.17;2.88;;;;;;;16.87;63.89;100751.44;5014064;28;103933;-83
2022/05/14 04:54:57;;;;;;;3.10;2.45;;;;;;;16.89;64.02;100764.91;5016891;28;102546;-82
2022/05/14 04:57:24;;;;;;;4.38;2.75;;;;;;;16.87;64.48;100762.44;5015979;28;102630;-82
2022/05/14 04:59:52;;;;;;;3.13;2.53;;;;;;;16.88;64.40;100764.09;4999199;28;102140;-83
2022/05/14 05:05:07;;;;;;;3.40;2.47;;;;;;;16.88;64.22;100769.59;4996873;28;102058;-83
2022/05/14 05:07:35;;;;;;;2.80;2.60;;;;;;;16.90;64.51;100763.78;4996812;28;101906;-84
2022/05/14 05:10:02;;;;;;;4.10;2.50;;;;;;;16.88;64.13;100758.59;5004155;28;102185;-83
2022/05/14 05:12:30;;;;;;;2.80;2.53;;;;;;;16.89;63.80;100759.41;5014846;28;104131;-83
2022/05/14 05:14:57;;;;;;;2.83;2.53;;;;;;;16.88;63.97;100753.09;5018027;28;102155;-83
2022/05/14 05:17:24;;;;;;;2.58;2.38;;;;;;;16.88;64.21;100750.34;5013131;28;102611;-82
2022/05/14 05:19:50;;;;;;;3.03;2.28;;;;;;;16.89;64.39;100759.41;5018932;28;102300;-82
2022/05/14 05:22:17;;;;;;;4.60;2.65;;;;;;;16.89;64.46;100754.72;5018291;28;104059;-84
2022/05/14 05:24:46;;;;;;;3.92;2.70;;;;;;;16.89;64.24;100742.91;5010643;28;102066;-84
2022/05/14 05:27:13;;;;;;;2.92;2.38;;;;;;;16.90;64.17;100747.28;5012297;28;102276;-84
2022/05/14 05:29:40;;;;;;;3.08;2.40;;;;;;;16.90;64.06;100741.78;5013328;28;102212;-81
2022/05/14 05:32:07;;;;;;;2.40;2.20;;;;;;;16.90;64.08;100739.84;5013088;28;103944;-83
2022/05/14 05:34:34;;;;;;;2.22;2.03;;;;;;;16.91;64.15;100741.44;5001808;28;101974;-83
2022/05/14 05:37:00;;;;;;;2.95;2.67;;;;;;;16.91;64.33;100744.19;5000555;28;102111;-83
2022/05/14 05:39:26;;;;;;;3.55;2.50;;;;;;;16.93;63.92;100743.91;5014074;28;102287;-82
2022/05/14 05:41:56;;;;;;;2.60;2.28;;;;;;;16.92;64.07;100743.09;5001154;28;104097;-82
2022/05/14 05:44:23;;;;;;;3.03;2.47;;;;;;;16.94;64.09;100745.53;5014881;28;102124;-83
2022/05/14 05:46:49;;;;;;;2.70;2.50;;;;;;;16.95;63.84;100738.88;5005667;28;102467;-83
2022/05/14 05:49:16;;;;;;;3.28;2.85;;;;;;;16.96;63.85;100738.59;4994893;28;102284;-83
2022/05/14 05:51:42;;;;;;;4.18;2.70;;;;;;;16.97;63.82;100737.47;4993768;28;104237;-83
2022/05/14 05:56:57;;;;;;;2.67;2.40;;;;;;;16.99;64.30;100746.22;5002391;28;102286;-84
2022/05/14 05:59:26;;;;;;;4.93;2.72;;;;;;;17.02;64.02;100747.50;5001279;28;102428;-83
2022/05/14 06:01:53;;;;;;;2.20;2.00;;;;;;;17.03;64.25;100749.16;4993412;28;103944;-83
2022/05/14 06:04:20;;;;;;;2.50;2.30;;;;;;;17.03;64.05;100744.47;5009952;28;102066;-84
2022/05/14 06:06:47;;;;;;;2.78;2.58;;;;;;;17.05;64.14;100747.69;4993943;28;103180;-84
2022/05/14 06:09:17;;;;;;;7.75;3.05;;;;;;;17.07;64.01;100743.84;5000510;28;103723;-84
2022/05/14 06:11:44;;;;;;;2.60;2.40;;;;;;;17.08;64.30;100739.97;5006188;28;103675;-84
2022/05/14 06:14:13;;;;;;;2.85;2.40;;;;;;;17.09;63.91;100736.06;5004260;28;102421;-83
2022/05/14 06:16:41;;;;;;;2.38;2.17;;;;;;;17.10;64.22;100743.22;5014970;28;102510;-83
2022/05/14 06:19:08;;;;;;;2.65;2.45;;;;;;;17.11;64.09;100742.88;5014164;28;102551;-83
2022/05/14 06:21:36;;;;;;;2.88;2.60;;;;;;;17.13;63.90;100745.31;5011957;28;103887;-84
2022/05/14 06:24:03;;;;;;;2.40;2.13;;;;;;;17.14;64.25;100735.97;5011769;28;102514;-84
2022/05/14 06:26:30;;;;;;;3.25;2.22;;;;;;;17.15;64.09;100740.31;5013867;28;102465;-83
2022/05/14 06:28:59;;;;;;;3.50;2.70;;;;;;;17.15;63.80;100740.31;5009957;28;102381;-84
2022/05/14 06:31:27;;;;;;;2.63;2.30;;;;;;;17.17;64.23;100738.09;5013409;28;104122;-84
2022/05/14 06:33:53;;;;;;;2.23;2.03;;;;;;;17.17;63.66;100730.63;5002587;28;102538;-84
2022/05/14 06:36:20;;;;;;;2.75;2.28;;;;;;;17.19;63.98;100735.81;4993024;28;102409;-84
2022/05/14 06:38:46;;;;;;;2.58;2.30;;;;;;;17.20;63.73;100734.69;5001396;28;102619;-83
2022/05/14 06:41:14;;;;;;;2.65;2.10;;;;;;;17.20;63.67;100724.50;5007279;28;103949;-84
2022/05/14 06:43:41;;;;;;;2.55;2.22;;;;;;;17.22;63.72;100730.50;4999851;28;102098;-84
2022/05/14 06:46:08;;;;;;;3.10;2.20;;;;;;;17.22;63.77;100730.50;5012516;28;102054;-84
2022/05/14 06:48:37;;;;;;;2.63;2.17;;;;;;;17.24;64.03;100721.94;5011889;28;102097;-84
2022/05/14 06:51:06;;;;;;;2.60;2.40;;;;;;;17.24;63.59;100733.75;5012500;28;103854;-84
2022/05/14 06:53:35;;;;;;;2.40;2.20;;;;;;;17.25;63.79;100735.38;5012223;28;102441;-84
2022/05/14 06:56:02;;;;;;;2.97;2.58;;;;;;;17.25;64.09;100738.13;5007837;28;102103;-84
2022/05/14 06:58:36;;;;;;;3.10;2.50;;;;;;;17.28;63.82;100733.94;5001773;28;102495;-84
2022/05/14 07:01:03;;;;;;;2.20;1.98;;;;;;;17.28;64.15;100731.19;5001438;28;103943;-84
2022/05/14 07:09:11;;;;;;;3.15;2.42;;;;;;;17.32;64.14;100745.13;4996257;28;103033;-84
2022/05/14 07:11:42;;;;;;;2.30;2.05;;;;;;;17.31;63.88;100738.81;5006017;28;104012;-87
2022/05/14 07:14:13;;;;;;;2.60;2.40;;;;;;;17.33;63.94;100741.22;5012822;28;101857;-84
2022/05/14 07:16:46;;;;;;;3.45;2.17;;;;;;;17.35;63.71;100744.47;5011720;28;102539;-90
2022/05/14 07:19:13;;;;;;;2.53;2.03;;;;;;;17.35;63.82;100742.53;5013459;28;104182;-87
2022/05/14 07:21:43;;;;;;;2.50;2.30;;;;;;;17.36;63.97;100741.41;5014413;28;103902;-84
2022/05/14 07:24:13;;;;;;;2.75;2.55;;;;;;;17.36;63.85;100749.66;5013297;28;102591;-85
2022/05/14 07:26:40;;;;;;;2.25;2.03;;;;;;;17.37;63.55;100748.53;5019262;28;102376;-84
2022/05/14 07:29:08;;;;;;;2.38;2.17;;;;;;;17.38;63.72;100749.31;5019768;28;102135;-84
2022/05/14 07:31:36;;;;;;;2.58;2.38;;;;;;;17.38;63.46;100739.16;5016076;28;105058;-84
2022/05/14 07:34:03;;;;;;;2.25;2.05;;;;;;;17.40;63.85;100742.38;5012819;28;102154;-84
2022/05/14 07:36:33;;;;;;;3.42;2.13;;;;;;;17.40;63.97;100747.91;5002474;28;102509;-85
2022/05/14 07:39:04;;;;;;;2.65;2.20;;;;;;;17.42;63.50;100742.91;5019211;28;102133;-84
2022/05/14 07:41:33;;;;;;;2.42;2.22;;;;;;;17.42;63.95;100740.16;5017069;28;103979;-84
2022/05/14 07:44:03;;;;;;;2.30;2.10;;;;;;;17.42;63.93;100742.91;5018962;28;102296;-84
2022/05/14 07:46:34;;;;;;;2.20;2.00;;;;;;;17.43;63.70;100735.44;5017657;28;102476;-84
2022/05/14 07:49:07;;;;;;;2.33;2.13;;;;;;;17.44;63.85;100743.38;5019289;28;102089;-84
2022/05/14 07:51:35;;;;;;;2.40;2.20;;;;;;;17.45;63.96;100739.50;5018266;28;103959;-84
2022/05/14 07:54:03;;;;;;;2.20;2.00;;;;;;;17.45;63.99;100739.50;5019086;28;102429;-84
2022/05/14 07:56:30;;;;;;;2.47;2.28;;;;;;;17.46;63.63;100734.81;5019311;28;102237;-84
2022/05/14 07:58:58;;;;;;;2.67;2.47;;;;;;;17.47;63.97;100731.75;5020894;28;102168;-84
2022/05/14 08:01:25;;;;;;;2.60;2.40;;;;;;;17.48;63.82;100727.84;5002064;28;103875;-85
2022/05/14 08:03:52;;;;;;;2.65;2.45;;;;;;;17.47;63.91;100742.75;5005369;28;102411;-84
2022/05/14 08:06:18;;;;;;;2.30;2.10;;;;;;;17.48;63.55;100738.84;5002813;28;101971;-85
2022/05/14 08:08:45;;;;;;;4.85;2.30;;;;;;;17.50;63.61;100747.63;5011712;28;102228;-85
2022/05/14 08:11:13;;;;;;;2.17;2.03;;;;;;;17.48;63.59;100747.13;5001963;28;103867;-84
2022/05/14 08:13:40;;;;;;;2.30;2.10;;;;;;;17.50;63.53;100744.88;5013896;28;102284;-84
2022/05/14 08:16:07;;;;;;;2.67;2.17;;;;;;;17.51;63.36;100749.22;5013530;28;102198;-84
2022/05/14 08:18:34;;;;;;;2.45;2.25;;;;;;;17.51;63.79;100743.72;5000798;28;102118;-84
2022/05/14 08:24:29;;;;;;;2.47;2.28;;;;;;;17.52;63.84;100759.09;5004579;28;103890;-84
2022/05/14 08:26:35;;;;;;;2.30;2.10;;;;;;;17.53;63.61;100752.50;5000754;28;102333;-84
2022/05/14 08:29:03;;;;;;;2.20;2.00;;;;;;;17.53;63.37;100752.50;4995762;28;102554;-84
2022/05/14 08:31:30;;;;;;;2.37;2.17;;;;;;;17.54;63.99;100754.09;4995016;28;103839;-84
2022/05/14 08:33:56;;;;;;;3.45;2.30;;;;;;;17.55;63.28;100749.41;4996728;28;102541;-84
2022/05/14 08:36:25;;;;;;;2.38;2.17;;;;;;;17.54;63.87;100751.34;4996229;28;102305;-84
2022/05/14 08:38:51;;;;;;;2.53;2.30;;;;;;;17.56;63.40;100755.72;4997185;28;102111;-84
2022/05/14 08:41:18;;;;;;;2.20;1.98;;;;;;;17.54;63.78;100743.09;4996998;28;103875;-85
2022/05/14 08:43:50;;;;;;;2.60;2.40;;;;;;;17.55;63.46;100749.41;4996115;28;102284;-85
2022/05/14 08:46:23;;;;;;;4.78;2.45;;;;;;;17.57;63.44;100743.59;4997346;28;102110;-84
2022/05/14 08:48:52;;;;;;;2.15;2.00;;;;;;;17.56;63.74;100751.03;4997396;28;102170;-85
2022/05/14 08:51:22;;;;;;;2.08;1.92;;;;;;;17.56;63.88;100744.72;4995887;28;102978;-84
2022/05/14 08:53:50;;;;;;;2.40;2.20;;;;;;;17.57;63.58;100746.38;4997074;28;102050;-84
2022/05/14 08:56:26;;;;;;;3.13;1.85;;;;;;;17.57;63.24;100740.84;4998370;28;102440;-84
2022/05/14 08:59:13;;;;;;;2.88;2.50;;;;;;;17.56;63.85;100745.53;5012823;28;102540;-84
2022/05/14 09:01:43;;;;;;;3.25;2.40;;;;;;;17.57;63.31;100749.13;5010064;28;104214;-84
2022/05/14 09:04:12;;;;;;;2.50;2.30;;;;;;;17.58;63.66;100747.97;5002749;28;102790;-85
2022/05/14 09:06:41;;;;;;;2.85;2.65;;;;;;;17.57;63.67;100746.38;5007224;28;102466;-85
2022/05/14 09:09:09;;;;;;;2.25;2.15;;;;;;;17.56;63.62;100745.53;5008560;28;102926;-84
2022/05/14 09:11:41;;;;;;;2.45;2.25;;;;;;;17.57;63.25;100740.84;5011390;28;104087;-85
2022/05/14 09:14:20;;;;;;;2.65;2.17;;;;;;;17.57;63.62;100738.09;5012566;28;102421;-84
2022/05/14 09:16:50;;;;;;;2.63;2.42;;;;;;;17.57;63.41;100735.34;5013022;28;102526;-85
2022/05/14 09:19:19;;;;;;;2.40;2.20;;;;;;;17.57;63.51;100740.84;5009658;28;102161;-84
2022/05/14 09:21:50;;;;;;;2.90;2.65;;;;;;;17.56;63.48;100744.72;5008432;28;103874;-84
2022/05/14 09:24:24;;;;;;;2.38;2.17;;;;;;;17.56;63.76;100750.22;5015455;28;102475;-84
2022/05/14 09:26:52;;;;;;;3.38;2.35;;;;;;;17.55;63.48;100738.41;5010689;28;103722;-84
2022/05/14 09:29:26;;;;;;;2.83;2.63;;;;;;;17.54;63.68;100737.59;5013208;28;101877;-85
2022/05/14 09:31:54;;;;;;;2.85;2.63;;;;;;;17.56;63.59;100739.22;5011650;28;103937;-84
2022/05/14 09:34:22;;;;;;;3.00;2.80;;;;;;;17.56;63.59;100739.22;5004576;28;102280;-85
2022/05/14 09:36:51;;;;;;;3.78;2.90;;;;;;;17.56;63.36;100740.03;5000292;28;102419;-84
2022/05/14 09:39:20;;;;;;;2.92;2.40;;;;;;;17.56;63.44;100740.03;4996178;28;102349;-85
2022/05/14 09:41:50;;;;;;;2.85;2.60;;;;;;;17.57;63.38;100735.34;5003016;28;103987;-85
2022/05/14 09:44:21;;;;;;;2.60;2.40;;;;;;;17.56;63.41;100733.72;5017318;28;102266;-84
2022/05/14 09:46:49;;;;;;;2.90;2.70;;;;;;;17.55;63.39;100732.91;5014570;28;102528;-84
2022/05/14 09:49:22;;;;;;;2.75;2.55;;;;;;;17.56;63.23;100730.97;4995834;28;102220;-84
2022/05/14 09:51:54;;;;;;;2.50;2.38;;;;;;;17.54;63.36;100729.34;5002947;28;103902;-84
2022/05/14 09:54:25;;;;;;;2.75;2.55;;;;;;;17.56;63.41;100733.72;4999025;28;102640;-84
2022/05/14 09:57:38;;;;;;;2.67;2.47;;;;;;;17.55;63.45;100730.16;4995635;28;101972;-84
2022/05/14 10:00:12;;;;;;;3.30;2.60;;;;;;;17.54;63.32;100734.84;4973714;28;102230;-84
2022/05/14 10:02:56;;;;;;;2.75;2.55;;;;;;;17.54;63.24;100737.59;4995943;28;103934;-85
2022/05/14 10:05:42;;;;;;;2.60;2.40;;;;;;;17.56;63.58;100744.72;5007346;28;102129;-84
2022/05/14 10:08:20;;;;;;;2.80;2.58;;;;;;;17.54;63.74;100737.59;5007056;28;101979;-85
2022/05/14 10:10:55;;;;;;;3.00;2.30;;;;;;;17.56;63.77;100726.25;5008637;28;102588;-84
2022/05/14 10:13:34;;;;;;;3.90;2.15;;;;;;;17.59;63.69;100727.56;5008044;28;103464;-85
2022/05/14 10:16:07;;;;;;;2.70;2.47;;;;;;;17.60;63.60;100729.19;5010259;28;102215;-84
2022/05/14 10:18:51;;;;;;;2.72;2.53;;;;;;;17.60;63.42;100734.69;5010579;28;102406;-84
2022/05/14 10:21:26;;;;;;;3.25;2.95;;;;;;;17.61;63.49;100728.06;5015579;28;102091;-85
2022/05/14 10:27:36;;;;;;;2.85;2.65;;;;;;;17.62;63.65;100746.22;5005284;28;102541;-84
2022/05/14 10:30:16;;;;;;;3.13;2.83;;;;;;;17.60;63.83;100730.03;4997121;28;102165;-85
2022/05/14 10:32:45;;;;;;;3.25;2.92;;;;;;;17.61;63.63;100736.34;5010461;28;102467;-85
2022/05/14 10:35:19;;;;;;;4.05;3.10;;;;;;;17.60;63.63;100734.69;4997148;28;104046;-85
2022/05/14 10:37:51;;;;;;;2.90;2.70;;;;;;;17.60;63.38;100731.94;5007402;28;102139;-85
2022/05/14 10:40:26;;;;;;;3.35;2.92;;;;;;;17.60;63.47;100729.19;4997492;28;102550;-85
2022/05/14 10:43:22;;;;;;;3.05;2.85;;;;;;;17.61;63.23;100730.84;4998454;28;102326;-84
2022/05/14 10:45:54;;;;;;;3.15;2.88;;;;;;;17.60;63.60;100723.69;4998963;28;102421;-83
2022/05/14 10:48:35;;;;;;;3.22;3.00;;;;;;;17.59;63.32;100727.56;5017704;28;102048;-84
2022/05/14 10:51:05;;;;;;;3.45;3.15;;;;;;;17.59;63.64;100722.06;5000054;28;102329;-84
2022/05/14 10:53:33;;;;;;;3.63;3.33;;;;;;;17.59;63.28;100722.06;5018615;28;102254;-84
2022/05/14 10:56:03;;;;;;;3.60;3.30;;;;;;;17.57;63.56;100721.59;5003224;28;104625;-85
2022/05/14 10:58:45;;;;;;;4.43;3.33;;;;;;;17.57;63.34;100727.91;5005480;28;102015;-84
2022/05/14 11:01:27;;;;;;;3.78;3.33;;;;;;;17.57;63.67;100730.66;5008580;28;102824;-84
2022/05/14 11:03:58;;;;;;;3.58;3.28;;;;;;;17.56;63.29;100729.00;5013101;28;102129;-84
2022/05/14 11:06:30;;;;;;;3.35;3.05;;;;;;;17.56;63.69;100722.69;4993772;28;104797;-85
2022/05/14 11:08:57;;;;;;;3.72;3.40;;;;;;;17.56;63.49;100723.50;5006037;28;102231;-84
2022/05/14 11:11:29;;;;;;;3.63;3.33;;;;;;;17.55;63.47;100732.91;5011279;28;102061;-85
2022/05/14 11:14:01;;;;;;;3.42;3.20;;;;;;;17.55;63.35;100730.16;5011300;28;102479;-86
2022/05/14 11:16:41;;;;;;;3.63;3.33;;;;;;;17.56;63.72;100733.72;5011254;28;103836;-86
2022/05/14 11:19:11;;;;;;;4.13;3.45;;;;;;;17.54;63.77;100736.78;5001357;28;102265;-86
2022/05/14 11:21:40;;;;;;;4.25;3.20;;;;;;;17.55;63.64;100738.41;5009000;28;102524;-88
2022/05/14 11:24:08;;;;;;;4.43;3.53;;;;;;;17.54;63.61;100731.28;5012431;28;103721;-85
2022/05/14 11:26:44;;;;;;;3.10;2.90;;;;;;;17.53;63.85;100735.97;5004967;28;103965;-86
2022/05/14 11:29:16;;;;;;;3.55;3.25;;;;;;;17.54;63.32;100731.28;4997472;28;102821;-86
2022/05/14 11:31:52;;;;;;;3.38;3.08;;;;;;;17.53;63.28;100730.47;5008465;28;102690;-86
2022/05/14 11:34:23;;;;;;;3.65;3.40;;;;;;;17.52;63.69;100728.84;4999480;28;102094;-86
2022/05/14 11:36:56;;;;;;;3.05;2.85;;;;;;;17.52;63.57;100728.84;5011973;28;103832;-86
2022/05/14 11:39:29;;;;;;;3.05;2.83;;;;;;;17.53;63.48;100732.44;5012517;28;102585;-86
2022/05/14 11:42:09;;;;;;;4.07;3.58;;;;;;;17.52;63.62;100736.28;5012934;28;101980;-85
2022/05/14 11:44:44;;;;;;;3.80;3.50;;;;;;;17.51;63.31;100738.22;5012595;28;102493;-85
2022/05/14 11:47:39;;;;;;;4.28;3.50;;;;;;;17.51;63.39;100726.41;5005443;28;104139;-86
2022/05/14 11:50:13;;;;;;;4.07;3.67;;;;;;;17.50;63.44;100727.56;4992878;28;102392;-86